sensor_id;sensor_type;location;lat;lon;timestamp;pressure;altitude;pressure_sealevel;temperature;humidity
11448;BME280;43755;49.736;8.734;2023-08-17T00:01:32;98039.28;;;17.86;100.00
11448;BME280;43755;49.736;8.734;2023-08-17T00:03:34;98038.34;;;17.74;100.00
11448;BME280;43755;49.736;8.734;2023-08-17T00:05:35;98035.16;;;17.69;100.00
11448;BME280;43755;49.736;8.734;2023-08-17T00:07:36;98024.53;;;17.68;100.00
11448;BME280;43755;49.736;8.734;2023-08-17T00:09:39;98034.19;;;17.70;100.00
11448;BME280;43755;49.736;8.734;2023-08-17T00:11:40;98033.13;;;17.60;100.00
11448;BME280;43755;49.736;8.734;2023-08-17T00:13:43;98032.06;;;17.63;100.00
11448;BME280;43755;49.736;8.734;2023-08-17T00:15:44;98032.91;;;17.63;100.00
11448;BME280;43755;49.736;8.734;2023-08-17T00:17:46;98027.66;;;17.62;100.00
11448;BME280;43755;49.736;8.734;2023-08-17T00:19:47;98034.94;;;17.59;100.00
11448;BME280;43755;49.736;8.734;2023-08-17T00:21:50;98028.81;;;17.45;100.00
11448;BME280;43755;49.736;8.734;2023-08-17T00:23:52;98041.31;;;17.44;100.00
11448;BME280;43755;49.736;8.734;2023-08-17T00:25:54;98042.50;;;17.40;100.00
11448;BME280;43755;49.736;8.734;2023-08-17T00:27:55;98041.31;;;17.44;100.00
11448;BME280;43755;49.736;8.734;2023-08-17T00:29:58;98042.00;;;17.48;100.00
11448;BME280;43755;49.736;8.734;2023-08-17T00:31:59;98038.97;;;17.52;100.00
11448;BME280;43755;49.736;8.734;2023-08-17T00:34:01;98043.47;;;17.52;100.00
11448;BME280;43755;49.736;8.734;2023-08-17T00:36:03;98038.03;;;17.53;100.00
11448;BME280;43755;49.736;8.734;2023-08-17T00:38:04;98039.09;;;17.51;100.00
11448;BME280;43755;49.736;8.734;2023-08-17T00:40:07;98038.22;;;17.50;100.00
11448;BME280;43755;49.736;8.734;2023-08-17T00:42:08;98034.81;;;17.48;100.00
11448;BME280;43755;49.736;8.734;2023-08-17T00:44:10;98038.22;;;17.50;100.00
11448;BME280;43755;49.736;8.734;2023-08-17T00:46:12;98038.13;;;17.52;100.00
11448;BME280;43755;49.736;8.734;2023-08-17T00:48:14;98029.47;;;17.48;100.00
11448;BME280;43755;49.736;8.734;2023-08-17T00:50:15;98028.94;;;17.43;100.00
11448;BME280;43755;49.736;8.734;2023-08-17T00:52:17;98035.03;;;17.45;100.00
11448;BME280;43755;49.736;8.734;2023-08-17T00:54:23;98030.09;;;17.39;100.00
11448;BME280;43755;49.736;8.734;2023-08-17T00:56:26;98034.16;;;17.32;100.00
11448;BME280;43755;49.736;8.734;2023-08-17T00:58:27;98034.38;;;17.29;100.00
11448;BME280;43755;49.736;8.734;2023-08-17T01:00:28;98030.09;;;17.27;100.00
11448;BME280;43755;49.736;8.734;2023-08-17T01:02:31;98025.41;;;17.30;100.00
11448;BME280;43755;49.736;8.734;2023-08-17T01:04:33;98025.50;;;17.29;100.00
11448;BME280;43755;49.736;8.734;2023-08-17T01:06:33;98024.66;;;17.28;100.00
11448;BME280;43755;49.736;8.734;2023-08-17T01:08:35;98017.38;;;17.30;100.00
11448;BME280;43755;49.736;8.734;2023-08-17T01:10:42;98011.19;;;17.30;100.00
11448;BME280;43755;49.736;8.734;2023-08-17T01:12:49;98011.28;;;17.28;100.00
11448;BME280;43755;49.736;8.734;2023-08-17T01:15:01;98005.84;;;17.30;100.00
11448;BME280;43755;49.736;8.734;2023-08-17T01:17:11;98010.41;;;17.15;100.00
11448;BME280;43755;49.736;8.734;2023-08-17T01:19:22;98004.09;;;17.03;100.00
11448;BME280;43755;49.736;8.734;2023-08-17T01:21:30;98007.72;;;17.02;100.00
11448;BME280;43755;49.736;8.734;2023-08-17T01:23:37;98009.66;;;17.00;100.00
11448;BME280;43755;49.736;8.734;2023-08-17T01:25:39;98001.75;;;16.99;100.00
11448;BME280;43755;49.736;8.734;2023-08-17T01:27:41;98005.59;;;16.95;100.00
11448;BME280;43755;49.736;8.734;2023-08-17T01:29:43;97999.50;;;16.93;100.00
11448;BME280;43755;49.736;8.734;2023-08-17T01:31:50;97998.31;;;16.97;100.00
11448;BME280;43755;49.736;8.734;2023-08-17T01:33:58;97997.25;;;16.99;100.00
11448;BME280;43755;49.736;8.734;2023-08-17T01:36:05;97994.91;;;16.95;100.00
11448;BME280;43755;49.736;8.734;2023-08-17T01:38:12;97996.06;;;17.03;100.00
11448;BME280;43755;49.736;8.734;2023-08-17T01:40:15;97992.25;;;17.07;100.00
11448;BME280;43755;49.736;8.734;2023-08-17T01:42:17;97987.53;;;17.11;100.00
11448;BME280;43755;49.736;8.734;2023-08-17T01:44:18;97988.28;;;17.13;100.00
11448;BME280;43755;49.736;8.734;2023-08-17T01:46:20;97987.00;;;17.18;100.00
11448;BME280;43755;49.736;8.734;2023-08-17T01:48:22;97988.06;;;17.16;100.00
11448;BME280;43755;49.736;8.734;2023-08-17T01:50:22;97982.09;;;17.12;100.00
11448;BME280;43755;49.736;8.734;2023-08-17T01:52:25;97977.91;;;17.08;100.00
11448;BME280;43755;49.736;8.734;2023-08-17T01:54:27;97978.22;;;17.04;100.00
11448;BME280;43755;49.736;8.734;2023-08-17T01:56:29;97973.84;;;17.03;100.00
11448;BME280;43755;49.736;8.734;2023-08-17T01:58:31;97977.69;;;16.99;100.00
11448;BME280;43755;49.736;8.734;2023-08-17T02:00:32;97966.16;;;16.98;100.00
11448;BME280;43755;49.736;8.734;2023-08-17T02:02:33;97973.63;;;16.93;100.00
11448;BME280;43755;49.736;8.734;2023-08-17T02:04:35;97971.59;;;16.97;100.00
11448;BME280;43755;49.736;8.734;2023-08-17T02:06:36;97966.56;;;16.92;100.00
11448;BME280;43755;49.736;8.734;2023-08-17T02:08:38;97960.38;;;16.92;100.00
11448;BME280;43755;49.736;8.734;2023-08-17T02:10:39;97960.06;;;16.96;100.00
11448;BME280;43755;49.736;8.734;2023-08-17T02:12:42;97960.69;;;17.00;100.00
11448;BME280;43755;49.736;8.734;2023-08-17T02:14:43;97953.31;;;17.03;100.00
11448;BME280;43755;49.736;8.734;2023-08-17T02:16:45;97961.22;;;17.05;100.00
11448;BME280;43755;49.736;8.734;2023-08-17T02:18:46;97952.44;;;17.03;100.00
11448;BME280;43755;49.736;8.734;2023-08-17T02:20:48;97950.97;;;16.99;100.00
11448;BME280;43755;49.736;8.734;2023-08-17T02:22:49;97948.81;;;17.04;100.00
11448;BME280;43755;49.736;8.734;2023-08-17T02:24:50;97947.97;;;17.03;100.00
11448;BME280;43755;49.736;8.734;2023-08-17T02:26:52;97947.97;;;17.03;100.00
11448;BME280;43755;49.736;8.734;2023-08-17T02:28:55;97945.00;;;16.95;100.00
11448;BME280;43755;49.736;8.734;2023-08-17T02:30:56;97948.72;;;16.93;100.00
11448;BME280;43755;49.736;8.734;2023-08-17T02:32:58;97949.06;;;17.01;100.00
11448;BME280;43755;49.736;8.734;2023-08-17T02:34:59;97944.78;;;17.11;100.00
11448;BME280;43755;49.736;8.734;2023-08-17T02:37:01;97942.31;;;17.08;100.00
11448;BME280;43755;49.736;8.734;2023-08-17T02:39:02;97943.91;;;17.10;100.00
11448;BME280;43755;49.736;8.734;2023-08-17T02:41:04;97936.31;;;17.04;100.00
11448;BME280;43755;49.736;8.734;2023-08-17T02:43:05;97940.72;;;17.05;100.00
11448;BME280;43755;49.736;8.734;2023-08-17T02:45:09;97942.53;;;17.05;100.00
11448;BME280;43755;49.736;8.734;2023-08-17T02:47:10;97949.06;;;17.01;100.00
11448;BME280;43755;49.736;8.734;2023-08-17T02:49:12;97946.16;;;17.04;100.00
11448;BME280;43755;49.736;8.734;2023-08-17T02:51:13;97947.34;;;17.00;100.00
11448;BME280;43755;49.736;8.734;2023-08-17T02:53:15;97941.47;;;17.07;100.00
11448;BME280;43755;49.736;8.734;2023-08-17T02:55:16;97938.25;;;17.15;100.00
11448;BME280;43755;49.736;8.734;2023-08-17T02:57:17;97946.38;;;17.13;100.00
11448;BME280;43755;49.736;8.734;2023-08-17T02:59:19;97939.09;;;17.03;100.00
11448;BME280;43755;49.736;8.734;2023-08-17T03:01:21;97940.63;;;17.19;100.00
11448;BME280;43755;49.736;8.734;2023-08-17T03:03:23;97947.13;;;17.15;100.00
11448;BME280;43755;49.736;8.734;2023-08-17T03:05:24;97945.63;;;17.11;100.00
11448;BME280;43755;49.736;8.734;2023-08-17T03:07:25;97943.81;;;17.12;100.00
11448;BME280;43755;49.736;8.734;2023-08-17T03:09:26;97944.56;;;17.14;100.00
11448;BME280;43755;49.736;8.734;2023-08-17T03:11:27;97948.81;;;17.04;100.00
11448;BME280;43755;49.736;8.734;2023-08-17T03:13:28;97945.09;;;16.94;100.00
11448;BME280;43755;49.736;8.734;2023-08-17T03:15:30;97947.97;;;16.91;100.00
11448;BME280;43755;49.736;8.734;2023-08-17T03:17:32;97942.59;;;16.91;100.00
11448;BME280;43755;49.736;8.734;2023-08-17T03:19:34;97934.06;;;16.86;100.00
11448;BME280;43755;49.736;8.734;2023-08-17T03:21:35;97944.03;;;16.84;100.00
11448;BME280;43755;49.736;8.734;2023-08-17T03:23:36;97947.00;;;16.92;100.00
11448;BME280;43755;49.736;8.734;2023-08-17T03:25:38;97947.66;;;16.95;100.00
11448;BME280;43755;49.736;8.734;2023-08-17T03:27:39;97945.00;;;16.95;100.00
11448;BME280;43755;49.736;8.734;2023-08-17T03:29:41;97952.78;;;16.98;100.00
11448;BME280;43755;49.736;8.734;2023-08-17T03:31:42;97960.34;;;16.79;100.00
11448;BME280;43755;49.736;8.734;2023-08-17T03:33:45;97956.59;;;16.69;100.00
11448;BME280;43755;49.736;8.734;2023-08-17T03:35:46;97953.88;;;16.56;100.00
11448;BME280;43755;49.736;8.734;2023-08-17T03:37:48;97952.78;;;16.46;100.00
11448;BME280;43755;49.736;8.734;2023-08-17T03:39:49;97956.50;;;16.44;100.00
11448;BME280;43755;49.736;8.734;2023-08-17T03:41:51;97952.59;;;16.49;100.00
11448;BME280;43755;49.736;8.734;2023-08-17T03:43:52;97963.81;;;16.54;100.00
11448;BME280;43755;49.736;8.734;2023-08-17T03:45:53;97967.94;;;16.46;100.00
11448;BME280;43755;49.736;8.734;2023-08-17T03:47:55;97970.09;;;16.53;100.00
11448;BME280;43755;49.736;8.734;2023-08-17T03:49:57;97968.06;;;16.57;100.00
11448;BME280;43755;49.736;8.734;2023-08-17T03:51:59;97968.16;;;16.55;100.00
11448;BME280;43755;49.736;8.734;2023-08-17T03:54:00;97967.63;;;16.50;100.00
11448;BME280;43755;49.736;8.734;2023-08-17T03:56:02;97974.91;;;16.48;100.00
11448;BME280;43755;49.736;8.734;2023-08-17T03:58:03;97970.72;;;16.44;100.00
11448;BME280;43755;49.736;8.734;2023-08-17T04:00:05;97966.44;;;16.42;100.00
11448;BME280;43755;49.736;8.734;2023-08-17T04:02:06;97979.34;;;16.35;100.00
11448;BME280;43755;49.736;8.734;2023-08-17T04:04:07;97974.09;;;16.33;100.00
11448;BME280;43755;49.736;8.734;2023-08-17T04:06:09;97973.25;;;16.33;100.00
11448;BME280;43755;49.736;8.734;2023-08-17T04:08:11;97972.69;;;16.28;100.00
11448;BME280;43755;49.736;8.734;2023-08-17T04:10:11;97969.16;;;16.27;100.00
11448;BME280;43755;49.736;8.734;2023-08-17T04:12:13;97976.53;;;16.24;100.00
11448;BME280;43755;49.736;8.734;2023-08-17T04:14:14;97975.75;;;16.22;100.00
11448;BME280;43755;49.736;8.734;2023-08-17T04:16:15;97967.84;;;16.20;100.00
11448;BME280;43755;49.736;8.734;2023-08-17T04:18:17;97975.03;;;16.20;100.00
11448;BME280;43755;49.736;8.734;2023-08-17T04:20:18;97973.84;;;16.24;100.00
11448;BME280;43755;49.736;8.734;2023-08-17T04:22:21;97976.22;;;16.28;100.00
11448;BME280;43755;49.736;8.734;2023-08-17T04:24:22;97975.03;;;16.32;100.00
11448;BME280;43755;49.736;8.734;2023-08-17T04:26:24;97977.63;;;16.34;100.00
11448;BME280;43755;49.736;8.734;2023-08-17T04:28:25;97985.31;;;16.38;100.00
11448;BME280;43755;49.736;8.734;2023-08-17T04:30:27;97980.84;;;16.39;100.00
11448;BME280;43755;49.736;8.734;2023-08-17T04:32:28;97978.06;;;16.41;100.00
11448;BME280;43755;49.736;8.734;2023-08-17T04:34:30;97990.94;;;16.48;100.00
11448;BME280;43755;49.736;8.734;2023-08-17T04:36:31;97985.28;;;16.53;100.00
11448;BME280;43755;49.736;8.734;2023-08-17T04:38:34;97990.72;;;16.51;100.00
11448;BME280;43755;49.736;8.734;2023-08-17T04:40:35;97992.81;;;16.60;100.00
11448;BME280;43755;49.736;8.734;2023-08-17T04:42:37;97989.28;;;16.60;100.00
11448;BME280;43755;49.736;8.734;2023-08-17T04:44:39;97996.88;;;16.66;100.00
11448;BME280;43755;49.736;8.734;2023-08-17T04:46:40;97997.88;;;16.77;100.00
11448;BME280;43755;49.736;8.734;2023-08-17T04:48:42;97995.38;;;16.74;100.00
11448;BME280;43755;49.736;8.734;2023-08-17T04:50:43;97992.41;;;16.79;100.00
11448;BME280;43755;49.736;8.734;2023-08-17T04:52:45;98001.66;;;17.00;100.00
11448;BME280;43755;49.736;8.734;2023-08-17T04:54:47;98001.22;;;17.06;100.00
11448;BME280;43755;49.736;8.734;2023-08-17T04:56:49;97992.34;;;17.18;100.00
11448;BME280;43755;49.736;8.734;2023-08-17T04:58:50;97998.34;;;17.22;100.00
11448;BME280;43755;49.736;8.734;2023-08-17T05:00:51;98000.69;;;17.27;100.00
11448;BME280;43755;49.736;8.734;2023-08-17T05:02:53;97993.31;;;17.30;100.00
11448;BME280;43755;49.736;8.734;2023-08-17T05:04:54;97995.22;;;17.28;100.00
11448;BME280;43755;49.736;8.734;2023-08-17T05:06:56;98001.75;;;17.11;100.00
11448;BME280;43755;49.736;8.734;2023-08-17T05:08:57;98004.00;;;17.17;100.00
11448;BME280;43755;49.736;8.734;2023-08-17T05:11:00;98008.72;;;17.14;100.00
11448;BME280;43755;49.736;8.734;2023-08-17T05:13:01;98023.16;;;17.24;100.00
11448;BME280;43755;49.736;8.734;2023-08-17T05:15:02;98013.31;;;17.25;100.00
11448;BME280;43755;49.736;8.734;2023-08-17T05:17:04;98010.53;;;17.26;100.00
11448;BME280;43755;49.736;8.734;2023-08-17T05:19:05;98006.34;;;17.22;100.00
11448;BME280;43755;49.736;8.734;2023-08-17T05:21:07;98016.09;;;17.23;100.00
11448;BME280;43755;49.736;8.734;2023-08-17T05:23:08;98004.34;;;17.26;100.00
11448;BME280;43755;49.736;8.734;2023-08-17T05:25:09;98008.59;;;17.28;100.00
11448;BME280;43755;49.736;8.734;2023-08-17T05:27:12;98014.81;;;17.29;100.00
11448;BME280;43755;49.736;8.734;2023-08-17T05:29:14;98022.72;;;17.05;100.00
11448;BME280;43755;49.736;8.734;2023-08-17T05:31:15;98020.78;;;17.07;100.00
11448;BME280;43755;49.736;8.734;2023-08-17T05:33:16;98011.38;;;17.27;100.00
11448;BME280;43755;49.736;8.734;2023-08-17T05:35:18;98018.97;;;17.20;100.00
11448;BME280;43755;49.736;8.734;2023-08-17T05:37:19;98022.19;;;17.25;100.00
11448;BME280;43755;49.736;8.734;2023-08-17T05:39:21;98018.31;;;17.04;100.00
11448;BME280;43755;49.736;8.734;2023-08-17T05:41:22;98024.94;;;16.98;100.00
11448;BME280;43755;49.736;8.734;2023-08-17T05:43:25;98020.13;;;17.03;100.00
11448;BME280;43755;49.736;8.734;2023-08-17T05:45:26;98025.47;;;17.03;100.00
11448;BME280;43755;49.736;8.734;2023-08-17T05:47:27;98023.44;;;16.94;100.00
11448;BME280;43755;49.736;8.734;2023-08-17T05:49:28;98022.78;;;17.03;100.00
11448;BME280;43755;49.736;8.734;2023-08-17T05:51:30;98027.94;;;17.06;100.00
11448;BME280;43755;49.736;8.734;2023-08-17T05:53:31;98025.81;;;17.24;100.00
11448;BME280;43755;49.736;8.734;2023-08-17T05:55:33;98022.72;;;17.05;100.00
11448;BME280;43755;49.736;8.734;2023-08-17T05:57:34;98019.97;;;17.32;100.00
11448;BME280;43755;49.736;8.734;2023-08-17T05:59:37;98019.41;;;17.39;100.00
11448;BME280;43755;49.736;8.734;2023-08-17T06:01:39;98018.88;;;17.34;100.00
11448;BME280;43755;49.736;8.734;2023-08-17T06:03:40;98020.59;;;17.23;100.00
11448;BME280;43755;49.736;8.734;2023-08-17T06:05:42;98025.16;;;17.20;100.00
11448;BME280;43755;49.736;8.734;2023-08-17T06:07:43;98031.06;;;17.13;100.00
11448;BME280;43755;49.736;8.734;2023-08-17T06:09:45;98024.53;;;17.30;100.00
11448;BME280;43755;49.736;8.734;2023-08-17T06:11:46;98037.25;;;17.51;100.00
11448;BME280;43755;49.736;8.734;2023-08-17T06:13:48;98034.16;;;17.57;100.00
11448;BME280;43755;49.736;8.734;2023-08-17T06:15:50;98030.53;;;17.58;100.00
11448;BME280;43755;49.736;8.734;2023-08-17T06:17:52;98036.97;;;17.69;100.00
11448;BME280;43755;49.736;8.734;2023-08-17T06:19:52;98026.16;;;17.83;100.00
11448;BME280;43755;49.736;8.734;2023-08-17T06:21:54;98020.88;;;17.94;100.00
11448;BME280;43755;49.736;8.734;2023-08-17T06:23:55;98018.97;;;17.96;100.00
11448;BME280;43755;49.736;8.734;2023-08-17T06:25:56;98030.56;;;17.71;100.00
11448;BME280;43755;49.736;8.734;2023-08-17T06:27:57;98027.13;;;17.82;100.00
11448;BME280;43755;49.736;8.734;2023-08-17T06:29:59;98021.66;;;17.83;100.00
11448;BME280;43755;49.736;8.734;2023-08-17T06:32:01;98030.09;;;17.90;100.00
11448;BME280;43755;49.736;8.734;2023-08-17T06:34:02;98019.25;;;18.04;100.00
11448;BME280;43755;49.736;8.734;2023-08-17T06:36:04;98023.44;;;18.08;100.00
11448;BME280;43755;49.736;8.734;2023-08-17T06:38:05;98025.38;;;18.30;100.00
11448;BME280;43755;49.736;8.734;2023-08-17T06:40:08;98022.41;;;18.22;100.00
11448;BME280;43755;49.736;8.734;2023-08-17T06:42:09;98026.84;;;18.34;100.00
11448;BME280;43755;49.736;8.734;2023-08-17T06:44:10;98022.53;;;18.44;100.00
11448;BME280;43755;49.736;8.734;2023-08-17T06:46:12;98024.63;;;18.52;100.00
11448;BME280;43755;49.736;8.734;2023-08-17T06:48:15;98021.41;;;18.83;100.00
11448;BME280;43755;49.736;8.734;2023-08-17T06:50:16;98024.78;;;18.74;100.00
11448;BME280;43755;49.736;8.734;2023-08-17T06:52:18;98024.63;;;18.64;100.00
11448;BME280;43755;49.736;8.734;2023-08-17T06:54:19;98021.84;;;18.66;100.00
11448;BME280;43755;49.736;8.734;2023-08-17T06:56:20;98017.97;;;18.81;100.00
11448;BME280;43755;49.736;8.734;2023-08-17T06:58:23;98019.69;;;18.82;100.00
11448;BME280;43755;49.736;8.734;2023-08-17T07:00:24;98022.56;;;19.03;100.00
11448;BME280;43755;49.736;8.734;2023-08-17T07:02:26;98026.53;;;18.86;100.00
11448;BME280;43755;49.736;8.734;2023-08-17T07:04:29;98033.28;;;18.68;100.00
11448;BME280;43755;49.736;8.734;2023-08-17T07:06:30;98045.91;;;18.42;100.00
11448;BME280;43755;49.736;8.734;2023-08-17T07:08:32;98037.88;;;18.42;100.00
11448;BME280;43755;49.736;8.734;2023-08-17T07:10:34;98040.97;;;18.49;100.00
11448;BME280;43755;49.736;8.734;2023-08-17T07:12:35;98039.59;;;18.43;100.00
11448;BME280;43755;49.736;8.734;2023-08-17T07:14:37;98039.59;;;18.07;100.00
11448;BME280;43755;49.736;8.734;2023-08-17T07:16:38;98040.13;;;17.99;100.00
11448;BME280;43755;49.736;8.734;2023-08-17T07:18:40;98038.88;;;18.28;100.00
11448;BME280;43755;49.736;8.734;2023-08-17T07:20:42;98045.66;;;18.09;100.00
11448;BME280;43755;49.736;8.734;2023-08-17T07:22:44;98056.56;;;18.31;100.00
11448;BME280;43755;49.736;8.734;2023-08-17T07:24:45;98054.09;;;18.52;100.00
11448;BME280;43755;49.736;8.734;2023-08-17T07:26:47;98053.13;;;18.29;100.00
11448;BME280;43755;49.736;8.734;2023-08-17T07:28:48;98051.59;;;18.37;100.00
11448;BME280;43755;49.736;8.734;2023-08-17T07:30:50;98052.44;;;18.38;100.00
11448;BME280;43755;49.736;8.734;2023-08-17T07:32:51;98048.13;;;18.61;100.00
11448;BME280;43755;49.736;8.734;2023-08-17T07:34:51;98044.06;;;18.55;100.00
11448;BME280;43755;49.736;8.734;2023-08-17T07:36:54;98044.28;;;18.76;100.00
11448;BME280;43755;49.736;8.734;2023-08-17T07:38:55;98043.72;;;18.84;100.00
11448;BME280;43755;49.736;8.734;2023-08-17T07:40:57;98045.44;;;19.31;100.00
11448;BME280;43755;49.736;8.734;2023-08-17T07:42:58;98045.22;;;18.99;100.00
11448;BME280;43755;49.736;8.734;2023-08-17T07:44:59;98045.97;;;19.01;100.00
11448;BME280;43755;49.736;8.734;2023-08-17T07:47:01;98049.28;;;19.15;100.00
11448;BME280;43755;49.736;8.734;2023-08-17T07:49:03;98048.25;;;19.29;100.00
11448;BME280;43755;49.736;8.734;2023-08-17T07:51:04;98051.16;;;19.26;100.00
11448;BME280;43755;49.736;8.734;2023-08-17T07:53:06;98052.69;;;19.52;100.00
11448;BME280;43755;49.736;8.734;2023-08-17T07:55:08;98049.81;;;19.78;100.00
11448;BME280;43755;49.736;8.734;2023-08-17T07:57:09;98052.47;;;19.55;100.00
11448;BME280;43755;49.736;8.734;2023-08-17T07:59:10;98055.34;;;19.41;100.00
11448;BME280;43755;49.736;8.734;2023-08-17T08:01:12;98054.16;;;19.10;100.00
11448;BME280;43755;49.736;8.734;2023-08-17T08:03:14;98059.06;;;19.28;100.00
11448;BME280;43755;49.736;8.734;2023-08-17T08:05:16;98055.91;;;19.34;100.00
11448;BME280;43755;49.736;8.734;2023-08-17T08:07:17;98055.78;;;19.70;100.00
11448;BME280;43755;49.736;8.734;2023-08-17T08:09:19;98050.03;;;19.75;100.00
11448;BME280;43755;49.736;8.734;2023-08-17T08:11:21;98051.91;;;19.96;100.00
11448;BME280;43755;49.736;8.734;2023-08-17T08:13:23;98048.31;;;20.18;100.00
11448;BME280;43755;49.736;8.734;2023-08-17T08:15:24;98058.31;;;20.38;100.00
11448;BME280;43755;49.736;8.734;2023-08-17T08:17:26;98050.41;;;20.37;100.00
11448;BME280;43755;49.736;8.734;2023-08-17T08:19:27;98049.16;;;20.30;100.00
11448;BME280;43755;49.736;8.734;2023-08-17T08:21:28;98050.50;;;20.47;100.00
11448;BME280;43755;49.736;8.734;2023-08-17T08:23:30;98047.19;;;20.21;100.00
11448;BME280;43755;49.736;8.734;2023-08-17T08:25:32;98054.06;;;19.80;100.00
11448;BME280;43755;49.736;8.734;2023-08-17T08:27:34;98051.38;;;19.80;100.00
11448;BME280;43755;49.736;8.734;2023-08-17T08:29:35;98053.34;;;19.89;100.00
11448;BME280;43755;49.736;8.734;2023-08-17T08:31:37;98048.69;;;19.80;100.00
11448;BME280;43755;49.736;8.734;2023-08-17T08:33:38;98053.34;;;19.78;100.00
11448;BME280;43755;49.736;8.734;2023-08-17T08:35:39;98052.72;;;20.19;100.00
11448;BME280;43755;49.736;8.734;2023-08-17T08:37:41;98045.25;;;20.45;100.00
11448;BME280;43755;49.736;8.734;2023-08-17T08:39:48;98047.81;;;20.90;100.00
11448;BME280;43755;49.736;8.734;2023-08-17T08:41:52;98052.72;;;20.84;100.00
11448;BME280;43755;49.736;8.734;2023-08-17T08:43:54;98055.97;;;20.67;100.00
11448;BME280;43755;49.736;8.734;2023-08-17T08:45:56;98059.06;;;20.83;100.00
11448;BME280;43755;49.736;8.734;2023-08-17T08:48:00;98063.97;;;20.78;100.00
11448;BME280;43755;49.736;8.734;2023-08-17T08:50:04;98057.09;;;20.85;100.00
11448;BME280;43755;49.736;8.734;2023-08-17T08:52:07;98059.16;;;20.50;100.00
11448;BME280;43755;49.736;8.734;2023-08-17T08:54:13;98057.47;;;20.49;100.00
11448;BME280;43755;49.736;8.734;2023-08-17T08:56:15;98063.44;;;20.30;100.00
11448;BME280;43755;49.736;8.734;2023-08-17T08:58:22;98060.69;;;20.32;100.00
11448;BME280;43755;49.736;8.734;2023-08-17T09:00:24;98061.28;;;20.35;100.00
11448;BME280;43755;49.736;8.734;2023-08-17T09:02:26;98058.47;;;20.26;100.00
11448;BME280;43755;49.736;8.734;2023-08-17T09:04:28;98059.81;;;20.42;100.00
11448;BME280;43755;49.736;8.734;2023-08-17T09:06:30;98059.78;;;20.54;100.00
11448;BME280;43755;49.736;8.734;2023-08-17T09:08:32;98063.97;;;20.78;100.00
11448;BME280;43755;49.736;8.734;2023-08-17T09:10:33;98062.97;;;20.91;100.00
11448;BME280;43755;49.736;8.734;2023-08-17T09:12:35;98068.19;;;20.92;100.00
11448;BME280;43755;49.736;8.734;2023-08-17T09:14:38;98061.66;;;20.74;100.00
11448;BME280;43755;49.736;8.734;2023-08-17T09:16:41;98063.91;;;20.58;100.00
11448;BME280;43755;49.736;8.734;2023-08-17T09:18:42;98047.69;;;20.48;100.00
11448;BME280;43755;49.736;8.734;2023-08-17T09:20:45;98044.66;;;20.41;100.00
11448;BME280;43755;49.736;8.734;2023-08-17T09:22:46;98045.72;;;20.61;100.00
11448;BME280;43755;49.736;8.734;2023-08-17T09:24:49;98048.22;;;20.74;100.00
11448;BME280;43755;49.736;8.734;2023-08-17T09:26:50;98042.28;;;20.91;100.00
11448;BME280;43755;49.736;8.734;2023-08-17T09:28:54;98046.63;;;21.03;100.00
11448;BME280;43755;49.736;8.734;2023-08-17T09:30:59;98044.94;;;21.02;100.00
11448;BME280;43755;49.736;8.734;2023-08-17T09:33:02;98050.19;;;20.72;100.00
11448;BME280;43755;49.736;8.734;2023-08-17T09:35:02;98051.91;;;20.73;100.00
11448;BME280;43755;49.736;8.734;2023-08-17T09:37:05;98048.09;;;20.75;100.00
11448;BME280;43755;49.736;8.734;2023-08-17T09:39:07;98045.16;;;20.78;100.00
11448;BME280;43755;49.736;8.734;2023-08-17T09:41:08;98043.22;;;20.37;100.00
11448;BME280;43755;49.736;8.734;2023-08-17T09:43:09;98038.44;;;20.41;100.00
11448;BME280;43755;49.736;8.734;2023-08-17T09:45:11;98044.72;;;20.62;100.00
11448;BME280;43755;49.736;8.734;2023-08-17T09:47:14;98039.97;;;20.87;100.00
11448;BME280;43755;49.736;8.734;2023-08-17T09:49:17;98048.44;;;21.14;100.00
11448;BME280;43755;49.736;8.734;2023-08-17T09:51:18;98046.50;;;21.05;100.00
11448;BME280;43755;49.736;8.734;2023-08-17T09:53:20;98041.44;;;21.22;100.00
11448;BME280;43755;49.736;8.734;2023-08-17T09:55:22;98040.44;;;21.44;100.00
11448;BME280;43755;49.736;8.734;2023-08-17T09:57:23;98047.28;;;21.48;100.00
11448;BME280;43755;49.736;8.734;2023-08-17T09:59:25;98046.75;;;21.54;100.00
11448;BME280;43755;49.736;8.734;2023-08-17T10:01:28;98042.06;;;21.56;100.00
11448;BME280;43755;49.736;8.734;2023-08-17T10:03:33;98043.69;;;21.38;100.00
11448;BME280;43755;49.736;8.734;2023-08-17T10:05:38;98044.72;;;21.68;100.00
11448;BME280;43755;49.736;8.734;2023-08-17T10:07:43;98041.41;;;21.85;100.00
11448;BME280;43755;49.736;8.734;2023-08-17T10:09:55;98037.19;;;22.32;100.00
11448;BME280;43755;49.736;8.734;2023-08-17T10:12:02;98034.34;;;23.02;100.00
11448;BME280;43755;49.736;8.734;2023-08-17T10:14:09;98043.09;;;23.43;100.00
11448;BME280;43755;49.736;8.734;2023-08-17T10:16:22;98044.47;;;23.76;100.00
11448;BME280;43755;49.736;8.734;2023-08-17T10:18:29;98047.97;;;23.49;100.00
11448;BME280;43755;49.736;8.734;2023-08-17T10:20:34;98046.25;;;23.19;100.00
11448;BME280;43755;49.736;8.734;2023-08-17T10:22:39;98044.41;;;23.19;100.00
11448;BME280;43755;49.736;8.734;2023-08-17T10:24:46;98046.47;;;22.58;100.00
11448;BME280;43755;49.736;8.734;2023-08-17T10:26:47;98047.25;;;22.30;100.00
11448;BME280;43755;49.736;8.734;2023-08-17T10:28:50;98039.69;;;22.14;100.00
11448;BME280;43755;49.736;8.734;2023-08-17T10:30:52;98041.66;;;22.62;100.00
11448;BME280;43755;49.736;8.734;2023-08-17T10:32:53;98045.25;;;22.81;100.00
11448;BME280;43755;49.736;8.734;2023-08-17T10:34:56;98040.44;;;22.85;100.00
11448;BME280;43755;49.736;8.734;2023-08-17T10:37:00;98039.78;;;22.62;100.00
11448;BME280;43755;49.736;8.734;2023-08-17T10:39:20;98039.25;;;22.68;100.00